sensor_id;sensor_type;location;lat;lon;timestamp;temperature;humidity
39777;DHT22;25453;48.162;14.510;2023-04-08T00:00:52;10.60;51.80
39777;DHT22;25453;48.162;14.510;2023-04-08T00:03:19;10.70;52.00
39777;DHT22;25453;48.162;14.510;2023-04-08T00:05:47;10.70;52.10
39777;DHT22;25453;48.162;14.510;2023-04-08T00:08:14;10.70;52.20
39777;DHT22;25453;48.162;14.510;2023-04-08T00:10:41;10.80;52.20
39777;DHT22;25453;48.162;14.510;2023-04-08T00:13:08;10.80;52.20
39777;DHT22;25453;48.162;14.510;2023-04-08T00:15:35;10.70;52.10
39777;DHT22;25453;48.162;14.510;2023-04-08T00:18:02;10.70;52.40
39777;DHT22;25453;48.162;14.510;2023-04-08T00:20:30;10.70;52.60
39777;DHT22;25453;48.162;14.510;2023-04-08T00:22:56;10.70;52.60
39777;DHT22;25453;48.162;14.510;2023-04-08T00:25:23;10.80;52.50
39777;DHT22;25453;48.162;14.510;2023-04-08T00:27:51;10.70;52.30
39777;DHT22;25453;48.162;14.510;2023-04-08T00:30:18;10.70;52.30
39777;DHT22;25453;48.162;14.510;2023-04-08T00:32:45;10.60;52.40
39777;DHT22;25453;48.162;14.510;2023-04-08T00:35:12;10.50;52.60
39777;DHT22;25453;48.162;14.510;2023-04-08T00:37:39;10.50;52.80
39777;DHT22;25453;48.162;14.510;2023-04-08T00:40:07;10.50;52.90
39777;DHT22;25453;48.162;14.510;2023-04-08T00:42:34;10.50;53.10
39777;DHT22;25453;48.162;14.510;2023-04-08T00:45:01;10.60;53.10
39777;DHT22;25453;48.162;14.510;2023-04-08T00:47:28;10.50;53.10
39777;DHT22;25453;48.162;14.510;2023-04-08T00:49:55;10.60;53.20
39777;DHT22;25453;48.162;14.510;2023-04-08T00:52:22;10.60;53.30
39777;DHT22;25453;48.162;14.510;2023-04-08T00:54:49;10.60;53.10
39777;DHT22;25453;48.162;14.510;2023-04-08T00:57:16;10.50;53.10
39777;DHT22;25453;48.162;14.510;2023-04-08T00:59:43;10.50;53.30
39777;DHT22;25453;48.162;14.510;2023-04-08T01:04:49;10.50;53.20
39777;DHT22;25453;48.162;14.510;2023-04-08T01:07:32;10.40;53.30
39777;DHT22;25453;48.162;14.510;2023-04-08T01:10:22;10.40;53.30
39777;DHT22;25453;48.162;14.510;2023-04-08T01:12:57;10.40;53.40
39777;DHT22;25453;48.162;14.510;2023-04-08T01:15:25;10.40;53.50
39777;DHT22;25453;48.162;14.510;2023-04-08T01:17:53;10.40;53.30
39777;DHT22;25453;48.162;14.510;2023-04-08T01:20:21;10.40;53.40
39777;DHT22;25453;48.162;14.510;2023-04-08T01:25:33;10.40;53.80
39777;DHT22;25453;48.162;14.510;2023-04-08T01:28:01;10.40;53.70
39777;DHT22;25453;48.162;14.510;2023-04-08T01:30:29;10.40;53.80
39777;DHT22;25453;48.162;14.510;2023-04-08T01:32:56;10.40;53.80
39777;DHT22;25453;48.162;14.510;2023-04-08T01:35:24;10.40;54.10
39777;DHT22;25453;48.162;14.510;2023-04-08T01:37:51;10.40;54.10
39777;DHT22;25453;48.162;14.510;2023-04-08T01:40:19;10.40;54.30
39777;DHT22;25453;48.162;14.510;2023-04-08T01:42:46;10.40;54.50
39777;DHT22;25453;48.162;14.510;2023-04-08T01:45:14;10.20;54.50
39777;DHT22;25453;48.162;14.510;2023-04-08T01:47:42;10.20;54.80
39777;DHT22;25453;48.162;14.510;2023-04-08T01:50:10;10.20;55.20
39777;DHT22;25453;48.162;14.510;2023-04-08T01:52:38;10.20;55.30
39777;DHT22;25453;48.162;14.510;2023-04-08T01:55:05;10.20;55.30
39777;DHT22;25453;48.162;14.510;2023-04-08T01:57:34;10.10;55.10
39777;DHT22;25453;48.162;14.510;2023-04-08T02:00:05;10.10;55.10
39777;DHT22;25453;48.162;14.510;2023-04-08T02:02:34;10.00;55.10
39777;DHT22;25453;48.162;14.510;2023-04-08T02:05:02;10.00;55.20
39777;DHT22;25453;48.162;14.510;2023-04-08T02:07:29;10.00;55.20
39777;DHT22;25453;48.162;14.510;2023-04-08T02:09:56;10.10;55.10
39777;DHT22;25453;48.162;14.510;2023-04-08T02:12:26;10.10;55.00
39777;DHT22;25453;48.162;14.510;2023-04-08T02:14:53;10.20;55.10
39777;DHT22;25453;48.162;14.510;2023-04-08T02:20:06;10.20;55.00
39777;DHT22;25453;48.162;14.510;2023-04-08T02:25:01;10.30;55.00
39777;DHT22;25453;48.162;14.510;2023-04-08T02:27:30;10.30;55.10
39777;DHT22;25453;48.162;14.510;2023-04-08T02:30:00;10.30;55.00
39777;DHT22;25453;48.162;14.510;2023-04-08T02:32:29;10.30;55.10
39777;DHT22;25453;48.162;14.510;2023-04-08T02:34:58;10.30;55.20
39777;DHT22;25453;48.162;14.510;2023-04-08T02:37:26;10.30;55.20
39777;DHT22;25453;48.162;14.510;2023-04-08T02:39:53;10.30;55.30
39777;DHT22;25453;48.162;14.510;2023-04-08T02:42:20;10.30;55.50
39777;DHT22;25453;48.162;14.510;2023-04-08T02:44:47;10.30;55.70
39777;DHT22;25453;48.162;14.510;2023-04-08T02:47:14;10.30;55.90
39777;DHT22;25453;48.162;14.510;2023-04-08T02:49:42;10.30;56.00
39777;DHT22;25453;48.162;14.510;2023-04-08T02:52:09;10.30;56.00
39777;DHT22;25453;48.162;14.510;2023-04-08T02:54:36;10.30;56.10
39777;DHT22;25453;48.162;14.510;2023-04-08T02:57:03;10.30;56.20
39777;DHT22;25453;48.162;14.510;2023-04-08T02:59:30;10.20;56.40
39777;DHT22;25453;48.162;14.510;2023-04-08T03:01:57;10.20;56.80
39777;DHT22;25453;48.162;14.510;2023-04-08T03:04:24;10.20;57.30
39777;DHT22;25453;48.162;14.510;2023-04-08T03:06:51;10.10;57.40
39777;DHT22;25453;48.162;14.510;2023-04-08T03:09:18;10.10;57.70
39777;DHT22;25453;48.162;14.510;2023-04-08T03:11:45;10.10;58.00
39777;DHT22;25453;48.162;14.510;2023-04-08T03:14:18;10.10;58.40
39777;DHT22;25453;48.162;14.510;2023-04-08T03:16:45;10.10;58.60
39777;DHT22;25453;48.162;14.510;2023-04-08T03:19:12;10.00;58.90
39777;DHT22;25453;48.162;14.510;2023-04-08T03:21:39;10.10;59.10
39777;DHT22;25453;48.162;14.510;2023-04-08T03:24:05;10.00;59.20
39777;DHT22;25453;48.162;14.510;2023-04-08T03:26:32;10.00;59.50
39777;DHT22;25453;48.162;14.510;2023-04-08T03:28:59;10.00;59.80
39777;DHT22;25453;48.162;14.510;2023-04-08T03:31:26;10.00;60.20
39777;DHT22;25453;48.162;14.510;2023-04-08T03:33:53;9.90;60.40
39777;DHT22;25453;48.162;14.510;2023-04-08T03:36:20;9.90;60.60
39777;DHT22;25453;48.162;14.510;2023-04-08T03:38:47;9.90;60.80
39777;DHT22;25453;48.162;14.510;2023-04-08T03:41:15;9.90;61.00
39777;DHT22;25453;48.162;14.510;2023-04-08T03:43:42;9.80;61.30
39777;DHT22;25453;48.162;14.510;2023-04-08T03:46:09;9.80;61.60
39777;DHT22;25453;48.162;14.510;2023-04-08T03:48:37;9.80;61.80
39777;DHT22;25453;48.162;14.510;2023-04-08T03:51:04;9.80;62.10
39777;DHT22;25453;48.162;14.510;2023-04-08T03:53:31;9.80;62.20
39777;DHT22;25453;48.162;14.510;2023-04-08T03:55:58;9.80;62.40
39777;DHT22;25453;48.162;14.510;2023-04-08T03:58:25;9.80;62.70
39777;DHT22;25453;48.162;14.510;2023-04-08T04:00:52;9.80;62.90
39777;DHT22;25453;48.162;14.510;2023-04-08T04:03:19;9.70;63.20
39777;DHT22;25453;48.162;14.510;2023-04-08T04:05:47;9.80;63.40
39777;DHT22;25453;48.162;14.510;2023-04-08T04:08:14;9.70;63.70
39777;DHT22;25453;48.162;14.510;2023-04-08T04:10:41;9.70;63.80
39777;DHT22;25453;48.162;14.510;2023-04-08T04:13:08;9.70;64.00
39777;DHT22;25453;48.162;14.510;2023-04-08T04:15:38;9.60;64.10
39777;DHT22;25453;48.162;14.510;2023-04-08T04:18:06;9.60;64.30
39777;DHT22;25453;48.162;14.510;2023-04-08T04:20:33;9.60;64.50
39777;DHT22;25453;48.162;14.510;2023-04-08T04:23:00;9.60;64.80
39777;DHT22;25453;48.162;14.510;2023-04-08T04:25:27;9.60;65.00
39777;DHT22;25453;48.162;14.510;2023-04-08T04:27:54;9.60;65.20
39777;DHT22;25453;48.162;14.510;2023-04-08T04:30:21;9.50;65.20
39777;DHT22;25453;48.162;14.510;2023-04-08T04:32:48;9.50;65.40
39777;DHT22;25453;48.162;14.510;2023-04-08T04:35:15;9.50;65.50
39777;DHT22;25453;48.162;14.510;2023-04-08T04:37:42;9.50;65.70
39777;DHT22;25453;48.162;14.510;2023-04-08T04:40:09;9.40;66.00
39777;DHT22;25453;48.162;14.510;2023-04-08T04:42:36;9.40;66.20
39777;DHT22;25453;48.162;14.510;2023-04-08T04:45:03;9.40;66.50
39777;DHT22;25453;48.162;14.510;2023-04-08T04:47:31;9.50;66.80
39777;DHT22;25453;48.162;14.510;2023-04-08T04:49:58;9.50;66.80
39777;DHT22;25453;48.162;14.510;2023-04-08T04:52:25;9.50;66.90
39777;DHT22;25453;48.162;14.510;2023-04-08T04:54:52;9.50;67.00
39777;DHT22;25453;48.162;14.510;2023-04-08T04:57:19;9.50;67.10
39777;DHT22;25453;48.162;14.510;2023-04-08T04:59:46;9.50;67.20
39777;DHT22;25453;48.162;14.510;2023-04-08T05:02:13;9.50;67.30
39777;DHT22;25453;48.162;14.510;2023-04-08T05:04:40;9.50;67.40
39777;DHT22;25453;48.162;14.510;2023-04-08T05:07:07;9.50;67.60
39777;DHT22;25453;48.162;14.510;2023-04-08T05:09:34;9.50;67.80
39777;DHT22;25453;48.162;14.510;2023-04-08T05:12:01;9.50;67.90
39777;DHT22;25453;48.162;14.510;2023-04-08T05:14:28;9.50;68.20
39777;DHT22;25453;48.162;14.510;2023-04-08T05:16:56;9.50;68.30
39777;DHT22;25453;48.162;14.510;2023-04-08T05:19:23;9.50;68.30
39777;DHT22;25453;48.162;14.510;2023-04-08T05:21:50;9.60;68.60
39777;DHT22;25453;48.162;14.510;2023-04-08T05:24:17;9.60;68.60
39777;DHT22;25453;48.162;14.510;2023-04-08T05:26:43;9.60;68.70
39777;DHT22;25453;48.162;14.510;2023-04-08T05:29:11;9.70;68.70
39777;DHT22;25453;48.162;14.510;2023-04-08T05:31:38;9.70;68.70
39777;DHT22;25453;48.162;14.510;2023-04-08T05:34:05;9.70;68.80
39777;DHT22;25453;48.162;14.510;2023-04-08T05:36:32;9.70;68.80
39777;DHT22;25453;48.162;14.510;2023-04-08T05:38:58;9.80;68.90
39777;DHT22;25453;48.162;14.510;2023-04-08T05:41:27;9.70;68.60
39777;DHT22;25453;48.162;14.510;2023-04-08T05:43:54;9.80;68.80
39777;DHT22;25453;48.162;14.510;2023-04-08T05:46:21;9.80;69.00
39777;DHT22;25453;48.162;14.510;2023-04-08T05:48:48;9.80;69.00
39777;DHT22;25453;48.162;14.510;2023-04-08T05:51:15;9.80;69.20
39777;DHT22;25453;48.162;14.510;2023-04-08T05:53:46;9.80;69.20
39777;DHT22;25453;48.162;14.510;2023-04-08T05:56:13;9.80;68.90
39777;DHT22;25453;48.162;14.510;2023-04-08T05:58:40;9.80;69.00
39777;DHT22;25453;48.162;14.510;2023-04-08T06:01:07;9.70;68.90
39777;DHT22;25453;48.162;14.510;2023-04-08T06:03:34;9.70;69.20
39777;DHT22;25453;48.162;14.510;2023-04-08T06:06:02;9.70;69.50
39777;DHT22;25453;48.162;14.510;2023-04-08T06:08:28;9.70;69.20
39777;DHT22;25453;48.162;14.510;2023-04-08T06:10:55;9.60;69.30
39777;DHT22;25453;48.162;14.510;2023-04-08T06:13:22;9.60;69.50
39777;DHT22;25453;48.162;14.510;2023-04-08T06:15:51;9.60;69.70
39777;DHT22;25453;48.162;14.510;2023-04-08T06:18:18;9.60;70.00
39777;DHT22;25453;48.162;14.510;2023-04-08T06:20:45;9.50;69.90
39777;DHT22;25453;48.162;14.510;2023-04-08T06:23:12;9.50;70.00
39777;DHT22;25453;48.162;14.510;2023-04-08T06:25:39;9.50;70.20
39777;DHT22;25453;48.162;14.510;2023-04-08T06:28:06;9.50;70.30
39777;DHT22;25453;48.162;14.510;2023-04-08T06:30:33;9.50;70.40
39777;DHT22;25453;48.162;14.510;2023-04-08T06:33:00;9.50;70.30
39777;DHT22;25453;48.162;14.510;2023-04-08T06:35:27;9.50;70.40
39777;DHT22;25453;48.162;14.510;2023-04-08T06:37:55;9.40;70.50
39777;DHT22;25453;48.162;14.510;2023-04-08T06:40:22;9.50;70.90
39777;DHT22;25453;48.162;14.510;2023-04-08T06:42:49;9.50;71.00
39777;DHT22;25453;48.162;14.510;2023-04-08T06:45:16;9.50;71.20
39777;DHT22;25453;48.162;14.510;2023-04-08T06:47:43;9.50;71.10
39777;DHT22;25453;48.162;14.510;2023-04-08T06:50:10;9.50;71.00
39777;DHT22;25453;48.162;14.510;2023-04-08T06:52:37;9.60;71.10
39777;DHT22;25453;48.162;14.510;2023-04-08T06:55:04;9.60;71.00
39777;DHT22;25453;48.162;14.510;2023-04-08T06:57:31;9.60;71.10
39777;DHT22;25453;48.162;14.510;2023-04-08T06:59:58;9.60;71.20
39777;DHT22;25453;48.162;14.510;2023-04-08T07:02:26;9.60;71.40
39777;DHT22;25453;48.162;14.510;2023-04-08T07:04:53;9.60;71.60
39777;DHT22;25453;48.162;14.510;2023-04-08T07:07:20;9.70;71.50
39777;DHT22;25453;48.162;14.510;2023-04-08T07:09:49;9.70;71.50
39777;DHT22;25453;48.162;14.510;2023-04-08T07:12:16;9.70;71.60
39777;DHT22;25453;48.162;14.510;2023-04-08T07:14:43;9.70;71.70
39777;DHT22;25453;48.162;14.510;2023-04-08T07:17:10;9.70;71.50
39777;DHT22;25453;48.162;14.510;2023-04-08T07:19:37;9.70;71.60
39777;DHT22;25453;48.162;14.510;2023-04-08T07:22:04;9.70;71.60
39777;DHT22;25453;48.162;14.510;2023-04-08T07:24:31;9.70;71.60
39777;DHT22;25453;48.162;14.510;2023-04-08T07:26:59;9.70;71.70
39777;DHT22;25453;48.162;14.510;2023-04-08T07:29:27;9.70;71.70
39777;DHT22;25453;48.162;14.510;2023-04-08T07:31:54;9.70;71.70
39777;DHT22;25453;48.162;14.510;2023-04-08T07:34:21;9.70;71.80
39777;DHT22;25453;48.162;14.510;2023-04-08T07:36:48;9.60;71.70
39777;DHT22;25453;48.162;14.510;2023-04-08T07:39:15;9.60;71.70
39777;DHT22;25453;48.162;14.510;2023-04-08T07:41:42;9.60;71.90
39777;DHT22;25453;48.162;14.510;2023-04-08T07:44:11;9.50;71.70
39777;DHT22;25453;48.162;14.510;2023-04-08T07:46:42;9.50;71.70
39777;DHT22;25453;48.162;14.510;2023-04-08T07:49:12;9.50;71.90
39777;DHT22;25453;48.162;14.510;2023-04-08T07:51:39;9.50;71.90
39777;DHT22;25453;48.162;14.510;2023-04-08T07:54:06;9.40;71.80
39777;DHT22;25453;48.162;14.510;2023-04-08T07:56:32;9.40;72.00
39777;DHT22;25453;48.162;14.510;2023-04-08T07:58:59;9.40;72.00
39777;DHT22;25453;48.162;14.510;2023-04-08T08:01:26;9.30;72.00
39777;DHT22;25453;48.162;14.510;2023-04-08T08:03:57;9.30;71.90
39777;DHT22;25453;48.162;14.510;2023-04-08T08:06:25;9.30;71.90
39777;DHT22;25453;48.162;14.510;2023-04-08T08:08:53;9.20;71.80
39777;DHT22;25453;48.162;14.510;2023-04-08T08:11:23;9.20;72.00
39777;DHT22;25453;48.162;14.510;2023-04-08T08:13:50;9.20;72.10
39777;DHT22;25453;48.162;14.510;2023-04-08T08:16:17;9.20;72.60
39777;DHT22;25453;48.162;14.510;2023-04-08T08:18:44;9.30;72.90
39777;DHT22;25453;48.162;14.510;2023-04-08T08:21:14;9.30;72.10
39777;DHT22;25453;48.162;14.510;2023-04-08T08:23:41;9.30;72.00
39777;DHT22;25453;48.162;14.510;2023-04-08T08:26:08;9.30;72.00
39777;DHT22;25453;48.162;14.510;2023-04-08T08:28:36;9.30;72.10
39777;DHT22;25453;48.162;14.510;2023-04-08T08:31:03;9.20;71.90
39777;DHT22;25453;48.162;14.510;2023-04-08T08:33:32;9.20;72.10
39777;DHT22;25453;48.162;14.510;2023-04-08T08:35:59;9.20;72.20
39777;DHT22;25453;48.162;14.510;2023-04-08T08:38:26;9.20;72.10
39777;DHT22;25453;48.162;14.510;2023-04-08T08:40:56;9.20;72.10
39777;DHT22;25453;48.162;14.510;2023-04-08T08:43:23;9.20;72.20
39777;DHT22;25453;48.162;14.510;2023-04-08T08:45:51;9.10;72.30
39777;DHT22;25453;48.162;14.510;2023-04-08T08:48:18;9.10;72.20
39777;DHT22;25453;48.162;14.510;2023-04-08T08:50:45;9.00;72.30
39777;DHT22;25453;48.162;14.510;2023-04-08T08:53:12;9.00;72.40
39777;DHT22;25453;48.162;14.510;2023-04-08T08:55:39;8.90;72.50
39777;DHT22;25453;48.162;14.510;2023-04-08T08:58:26;8.90;72.80
39777;DHT22;25453;48.162;14.510;2023-04-08T09:00:53;8.90;72.90
39777;DHT22;25453;48.162;14.510;2023-04-08T09:03:25;9.00;73.00
39777;DHT22;25453;48.162;14.510;2023-04-08T09:05:59;9.00;73.10
39777;DHT22;25453;48.162;14.510;2023-04-08T09:11:10;9.10;73.20
39777;DHT22;25453;48.162;14.510;2023-04-08T09:13:38;9.10;73.10
39777;DHT22;25453;48.162;14.510;2023-04-08T09:16:07;9.10;73.10
39777;DHT22;25453;48.162;14.510;2023-04-08T09:18:36;9.10;73.00
39777;DHT22;25453;48.162;14.510;2023-04-08T09:21:03;9.10;73.10
39777;DHT22;25453;48.162;14.510;2023-04-08T09:23:43;9.10;73.10
39777;DHT22;25453;48.162;14.510;2023-04-08T09:26:12;9.00;73.10
39777;DHT22;25453;48.162;14.510;2023-04-08T09:28:39;9.00;73.30
39777;DHT22;25453;48.162;14.510;2023-04-08T09:33:47;9.10;73.70
39777;DHT22;25453;48.162;14.510;2023-04-08T09:36:15;9.10;73.70
39777;DHT22;25453;48.162;14.510;2023-04-08T09:38:42;9.10;73.40
39777;DHT22;25453;48.162;14.510;2023-04-08T09:41:13;9.10;73.40
39777;DHT22;25453;48.162;14.510;2023-04-08T09:43:46;9.10;73.50
39777;DHT22;25453;48.162;14.510;2023-04-08T09:46:18;9.10;73.50
39777;DHT22;25453;48.162;14.510;2023-04-08T09:51:49;9.10;73.40
39777;DHT22;25453;48.162;14.510;2023-04-08T09:54:20;9.10;73.50
39777;DHT22;25453;48.162;14.510;2023-04-08T09:56:59;9.10;73.60
39777;DHT22;25453;48.162;14.510;2023-04-08T09:59:27;9.10;73.60
39777;DHT22;25453;48.162;14.510;2023-04-08T10:01:57;9.10;73.60
39777;DHT22;25453;48.162;14.510;2023-04-08T10:04:26;9.10;73.70
39777;DHT22;25453;48.162;14.510;2023-04-08T10:06:56;9.10;73.70
39777;DHT22;25453;48.162;14.510;2023-04-08T10:09:23;9.20;73.80
39777;DHT22;25453;48.162;14.510;2023-04-08T10:11:50;9.20;73.90
39777;DHT22;25453;48.162;14.510;2023-04-08T10:14:19;9.20;73.90
39777;DHT22;25453;48.162;14.510;2023-04-08T10:16:47;9.30;73.90
39777;DHT22;25453;48.162;14.510;2023-04-08T10:22:00;9.30;74.00
39777;DHT22;25453;48.162;14.510;2023-04-08T10:24:27;9.40;74.00
39777;DHT22;25453;48.162;14.510;2023-04-08T10:26:54;9.40;74.00
39777;DHT22;25453;48.162;14.510;2023-04-08T10:31:52;9.40;73.80
39777;DHT22;25453;48.162;14.510;2023-04-08T10:34:19;9.40;73.90
39777;DHT22;25453;48.162;14.510;2023-04-08T10:36:47;9.40;73.80
39777;DHT22;25453;48.162;14.510;2023-04-08T10:39:17;9.50;73.60
39777;DHT22;25453;48.162;14.510;2023-04-08T10:41:44;9.50;73.80
39777;DHT22;25453;48.162;14.510;2023-04-08T10:44:15;9.50;74.00
39777;DHT22;25453;48.162;14.510;2023-04-08T10:46:44;9.50;74.10
39777;DHT22;25453;48.162;14.510;2023-04-08T10:49:12;9.60;73.90
39777;DHT22;25453;48.162;14.510;2023-04-08T10:51:38;9.60;73.80
39777;DHT22;25453;48.162;14.510;2023-04-08T10:54:09;9.60;73.80
39777;DHT22;25453;48.162;14.510;2023-04-08T10:56:42;9.60;73.80
39777;DHT22;25453;48.162;14.510;2023-04-08T10:59:09;9.60;73.40
39777;DHT22;25453;48.162;14.510;2023-04-08T11:01:37;9.60;73.20
39777;DHT22;25453;48.162;14.510;2023-04-08T11:04:06;9.50;73.30
39777;DHT22;25453;48.162;14.510;2023-04-08T11:06:35;9.50;73.30
39777;DHT22;25453;48.162;14.510;2023-04-08T11:09:02;9.50;73.20
39777;DHT22;25453;48.162;14.510;2023-04-08T11:11:30;9.50;73.20
39777;DHT22;25453;48.162;14.510;2023-04-08T11:13:57;9.50;73.20
39777;DHT22;25453;48.162;14.510;2023-04-08T11:16:24;9.50;73.30
39777;DHT22;25453;48.162;14.510;2023-04-08T11:18:53;9.50;73.30
39777;DHT22;25453;48.162;14.510;2023-04-08T11:21:24;9.50;73.30
39777;DHT22;25453;48.162;14.510;2023-04-08T11:23:55;9.50;73.20
39777;DHT22;25453;48.162;14.510;2023-04-08T11:26:23;9.50;73.30
39777;DHT22;25453;48.162;14.510;2023-04-08T11:28:50;9.50;73.30
39777;DHT22;25453;48.162;14.510;2023-04-08T11:31:18;9.60;73.30
39777;DHT22;25453;48.162;14.510;2023-04-08T11:33:51;9.60;73.20
39777;DHT22;25453;48.162;14.510;2023-04-08T11:36:18;9.60;73.20
39777;DHT22;25453;48.162;14.510;2023-04-08T11:38:47;9.60;73.20
39777;DHT22;25453;48.162;14.510;2023-04-08T11:41:14;9.60;73.30
39777;DHT22;25453;48.162;14.510;2023-04-08T11:43:54;9.60;73.30
39777;DHT22;25453;48.162;14.510;2023-04-08T11:46:21;9.60;73.30
39777;DHT22;25453;48.162;14.510;2023-04-08T11:51:25;9.60;73.20
39777;DHT22;25453;48.162;14.510;2023-04-08T11:53:52;9.60;73.30
39777;DHT22;25453;48.162;14.510;2023-04-08T11:56:22;9.60;73.30
39777;DHT22;25453;48.162;14.510;2023-04-08T11:58:50;9.60;73.30
39777;DHT22;25453;48.162;14.510;2023-04-08T12:01:18;9.70;73.40
39777;DHT22;25453;48.162;14.510;2023-04-08T12:03:55;9.70;73.30
39777;DHT22;25453;48.162;14.510;2023-04-08T12:06:23;9.60;73.10
39777;DHT22;25453;48.162;14.510;2023-04-08T12:08:50;9.60;73.20
39777;DHT22;25453;48.162;14.510;2023-04-08T12:11:18;9.60;73.40
39777;DHT22;25453;48.162;14.510;2023-04-08T12:13:45;9.60;73.40
39777;DHT22;25453;48.162;14.510;2023-04-08T12:16:15;9.60;73.40
39777;DHT22;25453;48.162;14.510;2023-04-08T12:18:43;9.70;73.50
39777;DHT22;25453;48.162;14.510;2023-04-08T12:21:10;9.70;73.60
39777;DHT22;25453;48.162;14.510;2023-04-08T12:23:37;9.80;73.60
39777;DHT22;25453;48.162;14.510;2023-04-08T12:26:04;9.80;73.50
39777;DHT22;25453;48.162;14.510;2023-04-08T12:28:31;9.80;73.40
39777;DHT22;25453;48.162;14.510;2023-04-08T12:31:00;9.90;73.20
39777;DHT22;25453;48.162;14.510;2023-04-08T12:33:27;9.80;73.30
39777;DHT22;25453;48.162;14.510;2023-04-08T12:35:54;9.90;73.20
39777;DHT22;25453;48.162;14.510;2023-04-08T12:38:21;9.90;73.20
39777;DHT22;25453;48.162;14.510;2023-04-08T12:40:48;9.90;73.30
39777;DHT22;25453;48.162;14.510;2023-04-08T12:43:15;9.90;73.10
39777;DHT22;25453;48.162;14.510;2023-04-08T12:45:43;9.90;73.10
39777;DHT22;25453;48.162;14.510;2023-04-08T12:48:10;9.90;72.90
39777;DHT22;25453;48.162;14.510;2023-04-08T12:50:37;9.90;72.80
39777;DHT22;25453;48.162;14.510;2023-04-08T12:53:04;9.80;72.70
39777;DHT22;25453;48.162;14.510;2023-04-08T12:55:30;9.80;72.70
39777;DHT22;25453;48.162;14.510;2023-04-08T12:57:57;9.80;72.60
39777;DHT22;25453;48.162;14.510;2023-04-08T13:00:25;9.70;72.60
39777;DHT22;25453;48.162;14.510;2023-04-08T13:02:52;9.70;72.70
39777;DHT22;25453;48.162;14.510;2023-04-08T13:05:20;9.70;72.80
39777;DHT22;25453;48.162;14.510;2023-04-08T13:08:05;9.80;72.90
39777;DHT22;25453;48.162;14.510;2023-04-08T13:10:32;9.80;72.90
39777;DHT22;25453;48.162;14.510;2023-04-08T13:12:59;9.80;72.70
39777;DHT22;25453;48.162;14.510;2023-04-08T13:15:26;9.80;72.80
39777;DHT22;25453;48.162;14.510;2023-04-08T13:17:53;9.80;72.70
39777;DHT22;25453;48.162;14.510;2023-04-08T13:20:20;9.80;72.60
39777;DHT22;25453;48.162;14.510;2023-04-08T13:22:51;9.80;72.50
39777;DHT22;25453;48.162;14.510;2023-04-08T13:25:19;9.70;72.50
39777;DHT22;25453;48.162;14.510;2023-04-08T13:27:46;9.70;72.70
39777;DHT22;25453;48.162;14.510;2023-04-08T13:30:13;9.70;72.80
39777;DHT22;25453;48.162;14.510;2023-04-08T13:32:39;9.70;72.80
39777;DHT22;25453;48.162;14.510;2023-04-08T13:35:07;9.70;72.90
39777;DHT22;25453;48.162;14.510;2023-04-08T13:37:34;9.60;73.10
39777;DHT22;25453;48.162;14.510;2023-04-08T13:40:01;9.60;73.10
39777;DHT22;25453;48.162;14.510;2023-04-08T13:42:28;9.60;73.10
39777;DHT22;25453;48.162;14.510;2023-04-08T13:44:58;9.60;73.30
39777;DHT22;25453;48.162;14.510;2023-04-08T13:47:26;9.60;73.50
39777;DHT22;25453;48.162;14.510;2023-04-08T13:49:54;9.70;73.80
39777;DHT22;25453;48.162;14.510;2023-04-08T13:52:21;9.70;73.70
39777;DHT22;25453;48.162;14.510;2023-04-08T13:54:48;9.70;73.70
39777;DHT22;25453;48.162;14.510;2023-04-08T13:57:15;9.80;73.80
39777;DHT22;25453;48.162;14.510;2023-04-08T13:59:42;9.70;73.60
39777;DHT22;25453;48.162;14.510;2023-04-08T14:02:10;9.70;73.50
39777;DHT22;25453;48.162;14.510;2023-04-08T14:04:38;9.70;73.40
39777;DHT22;25453;48.162;14.510;2023-04-08T14:07:06;9.70;73.40
39777;DHT22;25453;48.162;14.510;2023-04-08T14:09:33;9.60;73.50
39777;DHT22;25453;48.162;14.510;2023-04-08T14:12:03;9.60;73.80
39777;DHT22;25453;48.162;14.510;2023-04-08T14:14:30;9.60;73.90
39777;DHT22;25453;48.162;14.510;2023-04-08T14:16:57;9.60;73.80
39777;DHT22;25453;48.162;14.510;2023-04-08T14:19:24;9.60;73.60
39777;DHT22;25453;48.162;14.510;2023-04-08T14:21:51;9.60;73.60
39777;DHT22;25453;48.162;14.510;2023-04-08T14:24:18;9.50;73.60
39777;DHT22;25453;48.162;14.510;2023-04-08T14:26:45;9.50;73.50
39777;DHT22;25453;48.162;14.510;2023-04-08T14:29:12;9.40;73.60
39777;DHT22;25453;48.162;14.510;2023-04-08T14:31:39;9.40;73.60
39777;DHT22;25453;48.162;14.510;2023-04-08T14:34:06;9.30;73.70
39777;DHT22;25453;48.162;14.510;2023-04-08T14:36:33;9.20;74.10
39777;DHT22;25453;48.162;14.510;2023-04-08T14:39:00;9.20;74.20
39777;DHT22;25453;48.162;14.510;2023-04-08T14:41:27;9.20;74.30
39777;DHT22;25453;48.162;14.510;2023-04-08T14:43:56;9.20;74.60
39777;DHT22;25453;48.162;14.510;2023-04-08T14:46:24;9.20;74.50
39777;DHT22;25453;48.162;14.510;2023-04-08T14:48:54;9.20;74.50
39777;DHT22;25453;48.162;14.510;2023-04-08T14:51:22;9.20;74.60
39777;DHT22;25453;48.162;14.510;2023-04-08T14:53:49;9.30;74.90
39777;DHT22;25453;48.162;14.510;2023-04-08T14:56:16;9.30;74.90
39777;DHT22;25453;48.162;14.510;2023-04-08T14:58:43;9.30;75.00
39777;DHT22;25453;48.162;14.510;2023-04-08T15:01:10;9.30;74.90
39777;DHT22;25453;48.162;14.510;2023-04-08T15:03:37;9.30;75.00
39777;DHT22;25453;48.162;14.510;2023-04-08T15:06:04;9.40;75.00
39777;DHT22;25453;48.162;14.510;2023-04-08T15:08:32;9.30;75.00
39777;DHT22;25453;48.162;14.510;2023-04-08T15:11:00;9.30;75.00
39777;DHT22;25453;48.162;14.510;2023-04-08T15:13:27;9.30;74.90
39777;DHT22;25453;48.162;14.510;2023-04-08T15:15:54;9.30;74.80
39777;DHT22;25453;48.162;14.510;2023-04-08T15:18:21;9.30;75.30
39777;DHT22;25453;48.162;14.510;2023-04-08T15:20:48;9.40;75.00
39777;DHT22;25453;48.162;14.510;2023-04-08T15:23:15;9.40;74.80
39777;DHT22;25453;48.162;14.510;2023-04-08T15:25:42;9.30;74.70
39777;DHT22;25453;48.162;14.510;2023-04-08T15:28:09;9.30;74.60
39777;DHT22;25453;48.162;14.510;2023-04-08T15:30:36;9.30;74.70
39777;DHT22;25453;48.162;14.510;2023-04-08T15:33:03;9.30;74.80
39777;DHT22;25453;48.162;14.510;2023-04-08T15:35:30;9.20;74.50
39777;DHT22;25453;48.162;14.510;2023-04-08T15:37:58;9.20;74.20
39777;DHT22;25453;48.162;14.510;2023-04-08T15:40:26;9.10;74.10
39777;DHT22;25453;48.162;14.510;2023-04-08T15:42:53;9.00;74.30
39777;DHT22;25453;48.162;14.510;2023-04-08T15:45:20;8.90;74.40
39777;DHT22;25453;48.162;14.510;2023-04-08T15:47:47;8.90;74.50
39777;DHT22;25453;48.162;14.510;2023-04-08T15:50:14;8.90;74.50
39777;DHT22;25453;48.162;14.510;2023-04-08T15:52:43;8.80;74.40
39777;DHT22;25453;48.162;14.510;2023-04-08T15:55:10;8.80;74.50
39777;DHT22;25453;48.162;14.510;2023-04-08T15:57:37;8.80;74.60